createdAt,value
2018-09-04T00:00:05.803Z,12.03
2018-09-04T00:03:09.087Z,14.90
2018-09-04T00:06:13.044Z,13.93
2018-09-04T00:09:16.381Z,12.70
2018-09-04T00:12:19.700Z,13.60
2018-09-04T00:15:23.100Z,12.13
2018-09-04T00:18:26.500Z,11.90
2018-09-04T00:21:29.744Z,12.80
2018-09-04T00:24:32.952Z,12.87
2018-09-04T00:27:36.301Z,13.10
2018-09-04T00:30:39.551Z,12.87
2018-09-04T00:33:43.248Z,12.23
2018-09-04T00:36:46.569Z,12.37
2018-09-04T00:39:50.490Z,11.87
2018-09-04T00:42:53.777Z,11.23
2018-09-04T00:45:57.046Z,12.27
2018-09-04T00:49:00.261Z,10.70
2018-09-04T00:52:03.473Z,10.80
2018-09-04T00:55:06.760Z,11.37
2018-09-04T00:58:10.061Z,10.77
2018-09-04T01:01:13.877Z,11.27
2018-09-04T01:04:17.199Z,10.57
2018-09-04T01:07:20.431Z,10.10
2018-09-04T01:10:23.759Z,10.67
2018-09-04T01:13:27.116Z,10.30
2018-09-04T01:16:30.315Z,9.67
2018-09-04T01:19:33.760Z,10.10
2018-09-04T01:22:37.063Z,10.23
2018-09-04T01:25:41.363Z,10.17
2018-09-04T01:28:44.843Z,11.00
2018-09-04T01:31:48.174Z,10.23
2018-09-04T01:34:51.527Z,9.47
2018-09-04T01:37:54.751Z,10.40
2018-09-04T01:40:58.054Z,10.73
2018-09-04T01:44:01.332Z,10.13
2018-09-04T01:47:04.540Z,10.73
2018-09-04T01:50:07.888Z,10.17
2018-09-04T01:53:11.485Z,10.57
2018-09-04T01:56:16.592Z,10.57
2018-09-04T01:59:19.875Z,10.37
2018-09-04T02:02:23.079Z,11.33
2018-09-04T02:05:26.230Z,10.00
2018-09-04T02:08:29.590Z,10.77
2018-09-04T02:11:32.861Z,10.63
2018-09-04T02:14:36.162Z,9.80
2018-09-04T02:17:39.528Z,9.83
2018-09-04T02:20:43.155Z,10.40
2018-09-04T02:23:46.466Z,9.17
2018-09-04T02:26:49.766Z,10.07
2018-09-04T02:29:52.964Z,9.13
2018-09-04T02:32:56.327Z,9.33
2018-09-04T02:35:59.576Z,9.40
2018-09-04T02:39:03.203Z,9.93
2018-09-04T02:42:07.466Z,9.27
2018-09-04T02:45:10.815Z,10.27
2018-09-04T02:48:15.511Z,10.87
2018-09-04T02:51:18.827Z,9.13
2018-09-04T02:54:22.164Z,10.50
2018-09-04T02:57:26.431Z,11.00
2018-09-04T03:00:29.967Z,10.77
2018-09-04T03:03:33.239Z,10.43
2018-09-04T03:06:36.524Z,11.07
2018-09-04T03:09:39.810Z,11.17
2018-09-04T03:12:43.213Z,12.23
2018-09-04T03:15:46.415Z,10.87
2018-09-04T03:18:49.708Z,11.37
2018-09-04T03:21:52.909Z,10.47
2018-09-04T03:24:56.244Z,10.30
2018-09-04T03:27:59.353Z,9.90
2018-09-04T03:31:02.672Z,9.50
2018-09-04T03:34:05.900Z,9.27
2018-09-04T03:37:09.186Z,8.53
2018-09-04T03:40:13.275Z,8.73
2018-09-04T03:43:16.487Z,9.10
2018-09-04T03:46:19.783Z,9.20
2018-09-04T03:49:23.009Z,9.40
2018-09-04T03:52:26.246Z,8.97
2018-09-04T03:55:29.384Z,9.53
2018-09-04T03:58:33.617Z,9.23
2018-09-04T04:01:36.900Z,9.13
2018-09-04T04:04:40.320Z,8.90
2018-09-04T04:07:44.763Z,9.03
2018-09-04T04:10:48.016Z,9.00
2018-09-04T04:13:52.240Z,9.00
2018-09-04T04:16:55.415Z,9.30
2018-09-04T04:19:58.797Z,8.80
2018-09-04T04:23:02.011Z,8.30
2018-09-04T04:26:05.467Z,9.13
2018-09-04T04:29:08.707Z,9.10
2018-09-04T04:32:12.368Z,9.73
2018-09-04T04:35:15.664Z,9.50
2018-09-04T04:38:19.513Z,9.13
2018-09-04T04:41:23.744Z,7.83
2018-09-04T04:44:27.090Z,8.70
2018-09-04T04:47:35.615Z,9.03
2018-09-04T04:50:38.856Z,8.47
2018-09-04T04:53:43.543Z,8.73
2018-09-04T04:56:46.803Z,9.17
2018-09-04T04:59:49.975Z,9.37
2018-09-04T05:02:53.287Z,9.57
2018-09-04T05:05:56.834Z,8.93
2018-09-04T05:09:00.078Z,9.27
2018-09-04T05:12:03.638Z,8.77
2018-09-04T05:15:06.906Z,8.47
2018-09-04T05:18:10.058Z,8.40
2018-09-04T05:21:14.695Z,7.80
2018-09-04T05:24:17.901Z,8.03
2018-09-04T05:27:21.301Z,7.00
2018-09-04T05:30:24.444Z,6.13
2018-09-04T05:33:34.805Z,7.17
2018-09-04T05:36:38.171Z,6.37
2018-09-04T05:39:41.386Z,6.03
2018-09-04T05:42:50.245Z,6.10
2018-09-04T05:45:54.697Z,7.00
2018-09-04T05:48:58.576Z,6.70
2018-09-04T05:52:01.832Z,6.93
2018-09-04T05:55:05.504Z,7.30
2018-09-04T05:58:08.851Z,8.63
2018-09-04T06:01:12.573Z,9.33
2018-09-04T06:04:15.891Z,8.83
2018-09-04T06:07:19.245Z,8.80
2018-09-04T06:10:22.542Z,9.50
2018-09-04T06:13:25.808Z,8.40
2018-09-04T06:16:29.168Z,8.20
2018-09-04T06:19:32.475Z,8.70
2018-09-04T06:22:35.954Z,8.83
2018-09-04T06:25:39.110Z,9.53
2018-09-04T06:28:43.380Z,10.57
2018-09-04T06:31:46.620Z,9.50
2018-09-04T06:34:49.840Z,9.37
2018-09-04T06:37:53.150Z,10.63
2018-09-04T06:40:56.452Z,10.27
2018-09-04T06:43:59.617Z,9.73
2018-09-04T06:47:02.848Z,8.27
2018-09-04T06:50:06.254Z,9.63
2018-09-04T06:53:09.544Z,9.40
2018-09-04T06:56:13.427Z,10.20
2018-09-04T06:59:16.715Z,9.40
2018-09-04T07:02:19.933Z,9.27
2018-09-04T07:05:23.068Z,9.77
2018-09-04T07:08:26.303Z,8.53
2018-09-04T07:11:29.505Z,9.37
2018-09-04T07:14:32.842Z,9.63
2018-09-04T07:17:36.107Z,10.17
2018-09-04T07:20:39.408Z,9.83
2018-09-04T07:23:45.264Z,10.13
2018-09-04T07:26:48.581Z,9.60
2018-09-04T07:29:51.795Z,9.83
2018-09-04T07:32:55.162Z,9.10
2018-09-04T07:35:58.452Z,8.83
2018-09-04T07:39:01.747Z,10.00
2018-09-04T07:42:05.060Z,9.70
2018-09-04T07:45:08.672Z,10.63
2018-09-04T07:48:12.488Z,10.90
2018-09-04T07:51:15.681Z,10.23
2018-09-04T07:54:19.998Z,10.90
2018-09-04T07:57:23.257Z,11.27
2018-09-04T08:00:26.576Z,12.50
2018-09-04T08:03:29.710Z,12.13
2018-09-04T08:06:32.914Z,11.97
2018-09-04T08:09:36.134Z,12.10
2018-09-04T08:12:39.540Z,12.33
2018-09-04T08:15:43.547Z,12.03
2018-09-04T08:18:46.811Z,12.37
2018-09-04T08:21:50.140Z,12.13
2018-09-04T08:24:53.294Z,13.40
2018-09-04T08:27:56.671Z,14.57
2018-09-04T08:30:59.875Z,13.67
2018-09-04T08:34:03.084Z,14.30
2018-09-04T08:37:06.813Z,15.73
2018-09-04T08:40:10.316Z,16.07
2018-09-04T08:43:14.277Z,14.57
2018-09-04T08:46:17.909Z,15.13
2018-09-04T08:49:21.176Z,16.90
2018-09-04T08:52:24.478Z,16.20
2018-09-04T08:55:27.797Z,15.40
2018-09-04T08:58:31.396Z,15.77
2018-09-04T09:01:34.499Z,15.60
2018-09-04T09:04:37.815Z,15.20
2018-09-04T09:07:41.096Z,15.03
2018-09-04T09:10:45.261Z,14.47
2018-09-04T09:13:48.575Z,13.60
2018-09-04T09:16:51.916Z,12.90
2018-09-04T09:19:55.296Z,11.23
2018-09-04T09:22:58.603Z,12.73
2018-09-04T09:26:01.898Z,12.50
2018-09-04T09:29:05.157Z,12.13
2018-09-04T09:32:08.372Z,11.67
2018-09-04T09:35:12.626Z,10.83
2018-09-04T09:38:18.835Z,9.87
2018-09-04T09:41:22.049Z,8.47
2018-09-04T09:44:25.399Z,8.47
2018-09-04T09:47:30.610Z,7.33
2018-09-04T09:50:33.945Z,6.27
2018-09-04T09:53:37.330Z,6.13
2018-09-04T09:56:40.395Z,6.80
2018-09-04T09:59:45.124Z,7.53
2018-09-04T10:02:51.090Z,10.37
2018-09-04T10:05:54.689Z,11.03
2018-09-04T10:08:57.979Z,10.97
2018-09-04T10:12:01.274Z,10.60
2018-09-04T10:15:04.802Z,9.07
2018-09-04T10:18:07.987Z,9.43
2018-09-04T10:21:11.297Z,7.83
2018-09-04T10:24:15.676Z,5.50
2018-09-04T10:27:18.987Z,6.07
2018-09-04T10:30:22.312Z,6.90
2018-09-04T10:33:25.651Z,6.13
2018-09-04T10:36:28.804Z,7.13
2018-09-04T10:39:39.429Z,6.80
2018-09-04T10:42:43.563Z,6.87
2018-09-04T10:45:52.276Z,6.30
2018-09-04T10:48:55.484Z,6.70
2018-09-04T10:51:58.802Z,6.43
2018-09-04T10:55:02.100Z,6.97
2018-09-04T10:58:06.195Z,6.90
2018-09-04T11:01:09.415Z,6.97
2018-09-04T11:04:12.688Z,6.67
2018-09-04T11:07:16.167Z,6.63
2018-09-04T11:10:19.512Z,6.20
2018-09-04T11:13:22.787Z,6.60
2018-09-04T11:16:26.187Z,5.40
2018-09-04T11:19:29.359Z,4.50
2018-09-04T11:22:32.848Z,5.40
2018-09-04T11:25:36.102Z,5.30
2018-09-04T11:28:43.536Z,5.17
2018-09-04T11:31:46.863Z,5.47
2018-09-04T11:34:50.143Z,5.77
2018-09-04T11:37:53.397Z,6.23
2018-09-04T11:40:56.668Z,6.17
2018-09-04T11:43:59.929Z,4.80
2018-09-04T11:47:03.597Z,4.83
2018-09-04T11:50:06.856Z,4.67
2018-09-04T11:53:10.156Z,5.50
2018-09-04T11:56:17.499Z,5.70
2018-09-04T11:59:20.839Z,5.77
2018-09-04T12:02:27.355Z,5.37
2018-09-04T12:05:30.522Z,6.10
2018-09-04T12:08:34.424Z,6.13
2018-09-04T12:11:37.716Z,5.97
2018-09-04T12:14:41.123Z,5.20
2018-09-04T12:17:45.039Z,5.20
2018-09-04T12:20:52.596Z,6.07
2018-09-04T12:23:55.845Z,5.20
2018-09-04T12:26:59.131Z,4.77
2018-09-04T12:30:02.297Z,4.47
2018-09-04T12:33:05.743Z,4.10
2018-09-04T12:36:09.252Z,4.33
2018-09-04T12:39:13.584Z,5.20
2018-09-04T12:42:16.861Z,4.70
2018-09-04T12:45:20.039Z,4.70
2018-09-04T12:48:25.388Z,4.67
2018-09-04T12:51:28.699Z,4.03
2018-09-04T12:54:32.014Z,4.37
2018-09-04T12:57:35.299Z,3.60
2018-09-04T13:00:38.605Z,3.70
2018-09-04T13:03:41.996Z,3.83
2018-09-04T13:06:46.604Z,3.97
2018-09-04T13:09:49.841Z,4.10
2018-09-04T13:12:53.195Z,4.17
2018-09-04T13:15:57.942Z,4.20
2018-09-04T13:19:01.227Z,4.17
2018-09-04T13:22:04.839Z,4.20
2018-09-04T13:25:08.076Z,4.60
2018-09-04T13:28:11.299Z,4.50
2018-09-04T13:31:15.519Z,4.80
2018-09-04T13:34:18.892Z,5.00
2018-09-04T13:37:23.503Z,4.63
2018-09-04T13:40:26.998Z,4.60
2018-09-04T13:43:30.281Z,4.30
2018-09-04T13:46:33.548Z,4.37
2018-09-04T13:49:36.871Z,4.40
2018-09-04T13:52:40.047Z,4.60
2018-09-04T13:55:43.728Z,4.83
2018-09-04T13:58:47.134Z,4.90
2018-09-04T14:01:50.440Z,5.13
2018-09-04T14:04:53.591Z,5.40
2018-09-04T14:07:58.891Z,4.97
2018-09-04T14:11:02.160Z,5.00
2018-09-04T14:14:05.543Z,5.00
2018-09-04T14:17:12.768Z,5.20
2018-09-04T14:20:16.047Z,5.40
2018-09-04T14:23:19.387Z,4.83
2018-09-04T14:26:22.734Z,5.00
2018-09-04T14:29:54.486Z,5.03
2018-09-04T14:32:29.250Z,5.27
2018-09-04T14:35:32.557Z,5.60
2018-09-04T14:38:35.905Z,6.03
2018-09-04T14:41:39.186Z,6.47
2018-09-04T14:44:42.467Z,7.03
2018-09-04T14:47:45.770Z,6.53
2018-09-04T14:50:50.491Z,6.13
2018-09-04T14:53:53.668Z,6.10
2018-09-04T14:56:57.054Z,6.57
2018-09-04T15:00:00.296Z,6.90
2018-09-04T15:03:03.840Z,6.50
2018-09-04T15:06:07.081Z,5.93
2018-09-04T15:09:10.360Z,5.70
2018-09-04T15:12:13.761Z,5.30
2018-09-04T15:15:17.293Z,5.80
2018-09-04T15:18:21.591Z,5.63
2018-09-04T15:21:24.877Z,5.83
2018-09-04T15:24:28.240Z,6.10
2018-09-04T15:27:31.547Z,5.77
2018-09-04T15:30:35.817Z,6.73
2018-09-04T15:33:39.181Z,6.50
2018-09-04T15:36:42.311Z,6.20
2018-09-04T15:39:45.595Z,6.53
2018-09-04T15:42:50.063Z,6.27
2018-09-04T15:45:53.552Z,6.37
2018-09-04T15:49:02.574Z,6.30
2018-09-04T15:52:05.759Z,6.30
2018-09-04T15:55:09.049Z,6.27
2018-09-04T15:58:12.408Z,6.27
2018-09-04T16:01:15.819Z,6.47
2018-09-04T16:04:19.267Z,6.93
2018-09-04T16:07:22.850Z,6.83
2018-09-04T16:10:26.158Z,6.77
2018-09-04T16:13:29.440Z,6.43
2018-09-04T16:16:32.740Z,6.30
2018-09-04T16:19:36.030Z,6.77
2018-09-04T16:22:39.225Z,7.30
2018-09-04T16:25:42.525Z,6.93
2018-09-04T16:28:45.828Z,7.40
2018-09-04T16:31:49.016Z,7.23
2018-09-04T16:34:53.507Z,6.93
2018-09-04T16:37:56.732Z,7.70
2018-09-04T16:40:59.940Z,7.07
2018-09-04T16:44:03.731Z,6.77
2018-09-04T16:47:06.938Z,7.00
2018-09-04T16:50:10.099Z,6.87
2018-09-04T16:53:13.464Z,7.00
2018-09-04T16:56:16.757Z,7.47
2018-09-04T16:59:20.674Z,7.13
2018-09-04T17:02:23.959Z,7.30
2018-09-04T17:05:27.396Z,7.93
2018-09-04T17:08:30.651Z,7.10
2018-09-04T17:11:33.968Z,7.47
2018-09-04T17:14:37.245Z,7.73
2018-09-04T17:17:40.594Z,7.47
2018-09-04T17:20:43.970Z,7.33
2018-09-04T17:23:47.295Z,7.57
2018-09-04T17:26:51.796Z,7.60
2018-09-04T17:29:55.077Z,7.50
2018-09-04T17:32:58.288Z,7.37
2018-09-04T17:36:01.590Z,7.33
2018-09-04T17:39:06.213Z,7.07
2018-09-04T17:42:10.532Z,7.40
2018-09-04T17:45:13.892Z,7.20
2018-09-04T17:48:17.152Z,7.50
2018-09-04T17:51:22.511Z,7.63
2018-09-04T17:54:25.839Z,7.80
2018-09-04T17:57:29.043Z,7.47
2018-09-04T18:00:32.354Z,7.97
2018-09-04T18:03:35.684Z,7.60
2018-09-04T18:06:40.165Z,7.30
2018-09-04T18:09:43.487Z,7.80
2018-09-04T18:12:47.768Z,7.93
2018-09-04T18:15:51.811Z,7.50
2018-09-04T18:18:56.143Z,7.17
2018-09-04T18:21:59.389Z,7.77
2018-09-04T18:25:02.734Z,7.33
2018-09-04T18:28:06.125Z,8.47
2018-09-04T18:31:09.416Z,8.03
2018-09-04T18:34:12.826Z,7.40
2018-09-04T18:37:16.136Z,8.03
2018-09-04T18:40:19.412Z,8.20
2018-09-04T18:43:23.722Z,8.30
2018-09-04T18:46:27.019Z,8.57
2018-09-04T18:49:30.339Z,8.20
2018-09-04T18:52:33.487Z,8.83
2018-09-04T18:55:36.896Z,9.30
2018-09-04T18:58:40.233Z,7.80
2018-09-04T19:01:43.501Z,9.80
2018-09-04T19:04:46.799Z,10.40
2018-09-04T19:07:52.282Z,12.40
2018-09-04T19:10:55.572Z,10.37
2018-09-04T19:13:58.884Z,10.77
2018-09-04T19:17:02.175Z,9.60
2018-09-04T19:20:05.452Z,9.63
2018-09-04T19:23:08.857Z,9.40
2018-09-04T19:26:12.159Z,9.07
2018-09-04T19:29:15.443Z,9.20
2018-09-04T19:32:19.671Z,9.03
2018-09-04T19:35:23.582Z,9.47
2018-09-04T19:38:26.872Z,10.20
2018-09-04T19:41:30.034Z,9.50
2018-09-04T19:44:33.372Z,8.90
2018-09-04T19:47:37.079Z,8.23
2018-09-04T19:50:40.420Z,8.97
2018-09-04T19:53:43.981Z,8.90
2018-09-04T19:56:47.280Z,8.60
2018-09-04T19:59:50.568Z,8.27
2018-09-04T20:02:53.940Z,8.90
2018-09-04T20:05:57.187Z,8.70
2018-09-04T20:09:00.587Z,9.37
2018-09-04T20:12:03.858Z,8.97
2018-09-04T20:15:11.664Z,8.93
2018-09-04T20:18:15.793Z,9.27
2018-09-04T20:21:19.100Z,9.63
2018-09-04T20:24:22.384Z,10.10
2018-09-04T20:27:25.680Z,9.97
2018-09-04T20:30:28.927Z,9.90
2018-09-04T20:33:32.259Z,9.63
2018-09-04T20:36:35.564Z,9.90
2018-09-04T20:39:38.758Z,9.93
2018-09-04T20:42:42.039Z,9.77
2018-09-04T20:45:45.777Z,9.53
2018-09-04T20:48:49.069Z,10.13
2018-09-04T20:51:52.365Z,10.33
2018-09-04T20:54:55.641Z,9.83
2018-09-04T20:58:10.467Z,10.17
2018-09-04T21:01:25.094Z,10.63
2018-09-04T21:04:39.743Z,9.83
2018-09-04T21:08:00.591Z,9.87
2018-09-04T21:11:03.855Z,10.07
2018-09-04T21:14:07.206Z,10.70
2018-09-04T21:17:11.462Z,9.90
2018-09-04T21:20:14.804Z,9.77
2018-09-04T21:23:18.985Z,10.27
2018-09-04T21:26:22.269Z,9.57
2018-09-04T21:29:43.208Z,11.10
2018-09-04T21:32:46.516Z,10.30
2018-09-04T21:35:49.875Z,10.40
2018-09-04T21:38:53.187Z,10.47
2018-09-04T21:41:56.483Z,10.40
2018-09-04T21:44:59.990Z,10.40
2018-09-04T21:48:03.393Z,10.67
2018-09-04T21:51:06.907Z,10.10
2018-09-04T21:54:10.199Z,10.57
2018-09-04T21:57:13.357Z,10.17
2018-09-04T22:00:22.183Z,11.10
2018-09-04T22:03:25.489Z,10.93
2018-09-04T22:06:28.796Z,10.50
2018-09-04T22:09:36.748Z,9.80
2018-09-04T22:12:39.978Z,10.27
2018-09-04T22:15:43.185Z,9.90
2018-09-04T22:18:47.443Z,10.13
2018-09-04T22:21:50.771Z,10.23
2018-09-04T22:24:54.016Z,10.40
2018-09-04T22:27:57.293Z,9.77
2018-09-04T22:31:00.633Z,9.83
2018-09-04T22:34:03.791Z,9.97
2018-09-04T22:37:07.104Z,10.27
2018-09-04T22:40:10.414Z,10.87
2018-09-04T22:43:14.708Z,9.83
2018-09-04T22:46:19.153Z,10.00
2018-09-04T22:49:22.435Z,10.13
2018-09-04T22:52:30.476Z,10.00
2018-09-04T22:55:34.797Z,10.60
2018-09-04T22:58:38.147Z,10.33
2018-09-04T23:01:41.342Z,9.67
2018-09-04T23:04:44.660Z,10.40
2018-09-04T23:07:48.253Z,10.23
2018-09-04T23:10:51.483Z,10.23
2018-09-04T23:13:54.883Z,9.90
2018-09-04T23:16:58.163Z,10.17
2018-09-04T23:20:01.381Z,10.50
2018-09-04T23:23:04.775Z,10.50
2018-09-04T23:26:08.111Z,10.13
2018-09-04T23:29:11.322Z,10.90
2018-09-04T23:32:14.540Z,10.63
2018-09-04T23:35:18.816Z,10.73
2018-09-04T23:38:23.307Z,10.40
2018-09-04T23:41:26.489Z,10.23
2018-09-04T23:44:30.794Z,10.83
2018-09-04T23:47:34.099Z,10.83
2018-09-04T23:50:37.408Z,11.03
2018-09-04T23:53:40.695Z,10.93
2018-09-04T23:56:43.978Z,10.73
2018-09-04T23:59:47.672Z,11.10
